Time;durP1;ratioP1;P1;durP2;ratioP2;P2;SDS_P1;SDS_P2;PMS_P1;PMS_P2;Temp;Humidity;BMP_temperature;BMP_pressure;BME280_temperature;BME280_humidity;BME280_pressure;Samples;Min_cycle;Max_cycle;Signal;HPM_P1;HPM_P2
2021/05/20 00:02:09;;;;;;;10.82;6.95;;;;;;;8.76;78.41;101659.94;5063328;28;20028;-78
2021/05/20 00:04:35;;;;;;;12.65;7.47;;;;;;;8.81;78.63;101658.50;5062001;28;20645;-78
2021/05/20 00:07:01;;;;;;;12.38;6.22;;;;;;;8.84;78.56;101661.56;5083213;28;20558;-78
2021/05/20 00:09:26;;;;;;;11.23;5.32;;;;;;;8.86;78.82;101664.03;5063930;28;20036;-78
2021/05/20 00:11:52;;;;;;;7.30;5.20;;;;;;;8.75;79.76;101669.00;5058409;28;20027;-78
2021/05/20 00:14:17;;;;;;;7.35;5.38;;;;;;;8.63;81.06;101661.88;5067272;28;20650;-78
2021/05/20 00:16:43;;;;;;;8.02;5.03;;;;;;;8.69;80.00;101664.53;5069989;28;20127;-78
2021/05/20 00:19:09;;;;;;;10.07;5.82;;;;;;;8.81;79.09;101667.34;5069282;28;20078;-78
2021/05/20 00:21:35;;;;;;;8.65;4.97;;;;;;;8.85;78.76;101657.88;5065942;28;20024;-78
2021/05/20 00:24:00;;;;;;;7.65;5.13;;;;;;;8.93;77.05;101662.94;5065971;28;20030;-78
2021/05/20 00:26:26;;;;;;;7.00;5.18;;;;;;;8.94;76.92;101659.22;5065054;28;20028;-78
2021/05/20 00:28:51;;;;;;;8.60;5.45;;;;;;;8.85;77.47;101662.38;5084118;28;20420;-78
2021/05/20 00:31:17;;;;;;;8.63;5.97;;;;;;;8.70;78.58;101660.00;5068765;28;20062;-78
2021/05/20 00:33:43;;;;;;;7.30;5.07;;;;;;;8.36;81.45;101672.66;5064979;28;20020;-78
2021/05/20 00:36:10;;;;;;;8.23;5.50;;;;;;;8.36;81.02;101663.84;5069656;28;20169;-78
2021/05/20 00:38:36;;;;;;;7.32;4.93;;;;;;;8.39;79.81;101668.75;5061093;28;20119;-78
2021/05/20 00:41:02;;;;;;;9.00;5.50;;;;;;;8.39;79.12;101666.09;5066382;28;20405;-78
2021/05/20 00:43:28;;;;;;;8.50;6.18;;;;;;;8.36;79.21;101667.31;5066518;28;20178;-78
2021/05/20 00:45:55;;;;;;;9.75;6.10;;;;;;;8.39;78.96;101672.25;5067910;28;20406;-78
2021/05/20 00:48:20;;;;;;;10.00;7.00;;;;;;;8.36;79.15;101669.19;5075534;28;20390;-78
2021/05/20 00:50:46;;;;;;;9.98;6.57;;;;;;;8.27;80.65;101670.41;5072786;28;20035;-78
2021/05/20 00:53:13;;;;;;;10.05;6.20;;;;;;;8.33;79.37;101666.91;5069237;28;20020;-78
2021/05/20 00:55:39;;;;;;;9.30;5.78;;;;;;;8.39;79.21;101671.41;5082106;28;20066;-78
2021/05/20 00:58:06;;;;;;;9.63;5.88;;;;;;;8.40;79.26;101675.72;5067970;28;20024;-78
2021/05/20 01:00:33;;;;;;;11.10;6.63;;;;;;;8.38;80.01;101681.28;5071043;28;20028;-78
2021/05/20 01:02:59;;;;;;;10.35;6.28;;;;;;;8.45;79.59;101675.94;5084360;28;20093;-78
2021/05/20 01:05:24;;;;;;;10.07;6.25;;;;;;;8.50;79.23;101675.28;5067468;28;20422;-78
2021/05/20 01:07:50;;;;;;;9.43;5.57;;;;;;;8.54;78.65;101681.84;5060994;28;20094;-78
2021/05/20 01:10:15;;;;;;;8.98;5.90;;;;;;;8.42;80.33;101679.00;5066889;28;20028;-78
2021/05/20 01:12:41;;;;;;;8.70;6.10;;;;;;;8.43;79.73;101677.97;5076476;28;20020;-78
2021/05/20 01:15:28;;;;;;;10.40;5.57;;;;;;;8.43;79.32;101677.97;5075051;28;20500;-79
2021/05/20 01:18:02;;;;;;;6.72;5.50;;;;;;;8.50;78.86;101676.13;5063533;28;20028;-79
2021/05/20 01:20:38;;;;;;;10.80;6.32;;;;;;;8.43;80.40;101676.13;5075960;28;20063;-79
2021/05/20 01:23:08;;;;;;;11.25;6.28;;;;;;;8.16;84.05;101690.56;5066300;28;20111;-79
2021/05/20 01:25:35;;;;;;;8.32;5.78;;;;;;;8.40;80.85;101694.41;5073697;28;20123;-79
2021/05/20 01:28:10;;;;;;;9.13;6.47;;;;;;;8.43;81.21;101685.97;5078000;28;20031;-79
2021/05/20 01:30:38;;;;;;;8.68;6.60;;;;;;;8.51;80.24;101683.09;5063872;28;20052;-79
2021/05/20 01:33:04;;;;;;;9.65;6.38;;;;;;;8.60;79.51;101692.50;5068666;28;20024;-79
2021/05/20 01:35:29;;;;;;;10.82;6.35;;;;;;;8.67;79.29;101687.97;5066817;28;20039;-79
2021/05/20 01:40:53;;;;;;;7.40;6.10;;;;;;;8.73;79.63;101684.44;5076916;28;20112;-79
2021/05/20 01:43:18;;;;;;;8.75;6.20;;;;;;;8.82;78.88;101681.53;5079856;28;20028;-79
2021/05/20 01:45:56;;;;;;;8.27;6.78;;;;;;;8.86;78.52;101675.53;5082904;28;20385;-79
2021/05/20 01:48:22;;;;;;;10.38;6.82;;;;;;;8.87;79.10;101679.84;5081600;28;20415;-79
2021/05/20 01:50:47;;;;;;;7.90;6.20;;;;;;;8.90;79.24;101678.59;5084466;28;20107;-79
2021/05/20 01:53:13;;;;;;;9.10;7.00;;;;;;;8.90;79.34;101675.91;5067540;28;20012;-79
2021/05/20 01:55:40;;;;;;;10.27;6.28;;;;;;;8.89;79.18;101675.09;5066612;28;20016;-79
2021/05/20 01:58:05;;;;;;;9.63;6.63;;;;;;;8.91;79.28;101677.56;5064860;28;20023;-79
2021/05/20 02:00:31;;;;;;;10.82;7.72;;;;;;;8.88;80.07;101669.97;5078994;28;20016;-79
2021/05/20 02:02:57;;;;;;;11.80;7.72;;;;;;;8.88;80.32;101667.31;5065541;28;20492;-78
2021/05/20 02:05:22;;;;;;;12.20;7.60;;;;;;;8.83;80.95;101664.47;5066129;28;20505;-79
2021/05/20 02:07:48;;;;;;;9.70;7.20;;;;;;;8.84;80.67;101660.75;5082552;28;20020;-79
2021/05/20 02:10:14;;;;;;;10.82;7.30;;;;;;;8.82;81.05;101670.84;5071752;28;20502;-78
2021/05/20 02:12:39;;;;;;;10.80;7.15;;;;;;;8.62;83.72;101662.94;5062405;28;20031;-78
2021/05/20 02:15:05;;;;;;;10.05;7.88;;;;;;;8.71;82.15;101667.78;5084073;28;20024;-79
2021/05/20 02:17:32;;;;;;;9.00;7.18;;;;;;;8.71;82.06;101667.78;5060007;28;20177;-79
2021/05/20 02:19:57;;;;;;;11.77;7.25;;;;;;;8.67;82.62;101671.94;5078168;28;20099;-79
2021/05/20 02:22:23;;;;;;;12.10;7.55;;;;;;;8.67;83.38;101671.94;5060505;28;20115;-79
2021/05/20 02:24:49;;;;;;;11.50;7.45;;;;;;;8.71;82.18;101670.47;5081618;28;20031;-79
2021/05/20 02:27:14;;;;;;;10.65;7.85;;;;;;;8.72;81.96;101669.44;5087243;28;20050;-79
2021/05/20 02:29:40;;;;;;;6.72;5.15;;;;;;;8.76;81.58;101665.28;5069122;28;20021;-79
2021/05/20 02:32:05;;;;;;;8.93;6.72;;;;;;;8.74;81.65;101671.88;5072139;28;20019;-79
2021/05/20 02:34:31;;;;;;;12.27;8.10;;;;;;;8.69;82.23;101669.88;5082307;28;20024;-79
2021/05/20 02:36:56;;;;;;;12.77;8.65;;;;;;;8.46;86.00;101682.91;5088219;28;20496;-78
2021/05/20 02:39:22;;;;;;;13.45;7.88;;;;;;;8.51;84.58;101677.75;5087468;28;20055;-79
2021/05/20 02:41:47;;;;;;;11.32;7.55;;;;;;;8.55;84.56;101688.81;5083443;28;20032;-79
2021/05/20 02:44:13;;;;;;;10.15;7.32;;;;;;;8.60;84.10;101684.47;5071427;28;20032;-79
2021/05/20 02:46:39;;;;;;;11.45;7.38;;;;;;;8.63;83.52;101686.75;5071362;28;20051;-79
2021/05/20 02:49:04;;;;;;;10.05;7.68;;;;;;;8.70;82.80;101684.88;5085645;28;20059;-79
2021/05/20 02:51:31;;;;;;;8.68;6.82;;;;;;;8.72;82.31;101688.13;5073860;28;20106;-79
2021/05/20 02:53:56;;;;;;;11.68;7.45;;;;;;;8.73;82.14;101697.78;5087161;28;20501;-79
2021/05/20 02:56:22;;;;;;;11.45;7.65;;;;;;;8.74;82.15;101687.91;5071554;28;20039;-79
2021/05/20 02:58:47;;;;;;;12.27;7.65;;;;;;;8.75;82.16;101695.72;5075962;28;20430;-79
2021/05/20 03:01:13;;;;;;;11.63;7.70;;;;;;;8.74;81.98;101693.25;5069222;28;20208;-79
2021/05/20 03:03:38;;;;;;;13.02;8.10;;;;;;;8.71;82.58;101710.53;5074339;28;20024;-79
2021/05/20 03:06:04;;;;;;;13.40;8.15;;;;;;;8.72;82.27;101700.69;5090242;28;20028;-79
2021/05/20 03:08:30;;;;;;;13.73;7.35;;;;;;;8.73;82.30;101705.81;5086484;28;20056;-79
2021/05/20 03:10:56;;;;;;;10.32;7.43;;;;;;;8.71;82.35;101704.38;5068761;28;20028;-79
2021/05/20 03:13:22;;;;;;;15.43;6.70;;;;;;;8.70;82.28;101700.88;5089317;28;20033;-79
2021/05/20 03:15:47;;;;;;;10.57;7.03;;;;;;;8.75;81.82;101701.06;5072982;28;20671;-79
2021/05/20 03:18:13;;;;;;;10.25;7.35;;;;;;;8.76;81.95;101710.72;5070952;28;20033;-79
2021/05/20 03:20:38;;;;;;;10.30;7.68;;;;;;;8.79;81.93;101709.47;5087511;28;20359;-78
2021/05/20 03:23:04;;;;;;;9.50;7.03;;;;;;;8.81;81.49;101703.94;5073170;28;20547;-78
2021/05/20 03:25:29;;;;;;;12.77;7.70;;;;;;;8.84;81.64;101711.53;5085727;28;20031;-79
2021/05/20 03:27:55;;;;;;;9.88;6.90;;;;;;;8.83;81.83;101712.56;5073129;28;20483;-79
2021/05/20 03:30:21;;;;;;;11.25;7.00;;;;;;;8.85;81.76;101705.16;5091407;28;20108;-79
2021/05/20 03:32:46;;;;;;;11.63;6.32;;;;;;;8.91;81.47;101709.63;5073386;28;20023;-79
2021/05/20 03:35:12;;;;;;;9.85;5.95;;;;;;;9.00;80.56;101714.53;5083341;28;20028;-79
2021/05/20 03:37:37;;;;;;;9.43;6.18;;;;;;;8.99;81.35;101709.41;5059416;28;20108;-79
2021/05/20 03:40:05;;;;;;;9.80;6.68;;;;;;;8.97;81.70;101714.94;5065832;28;20029;-79
2021/05/20 03:42:30;;;;;;;11.30;6.40;;;;;;;9.08;80.47;101722.28;5080565;28;20035;-79
2021/05/20 03:44:56;;;;;;;10.60;6.93;;;;;;;9.07;81.00;101720.66;5061221;28;20129;-79
2021/05/20 03:47:21;;;;;;;7.85;5.40;;;;;;;9.12;80.92;101716.50;5078634;28;20031;-79
2021/05/20 03:49:47;;;;;;;8.27;5.63;;;;;;;9.11;81.52;101725.56;5069544;28;20615;-79
2021/05/20 03:52:13;;;;;;;7.07;5.32;;;;;;;9.16;81.25;101734.59;5066919;28;20020;-79
2021/05/20 03:54:42;;;;;;;8.20;6.18;;;;;;;9.22;80.83;101733.72;5079833;28;20530;-79
2021/05/20 03:57:07;;;;;;;6.05;5.05;;;;;;;9.25;81.27;101730.63;5079290;28;20081;-78
2021/05/20 03:59:33;;;;;;;9.02;5.47;;;;;;;9.33;80.83;101741.06;5081150;28;20032;-79
2021/05/20 04:01:58;;;;;;;8.15;4.85;;;;;;;9.43;79.87;101737.91;5071019;28;20073;-78
2021/05/20 04:04:24;;;;;;;5.80;4.68;;;;;;;9.55;79.49;101738.06;5067834;28;20024;-79
2021/05/20 04:06:49;;;;;;;4.63;3.67;;;;;;;9.52;79.85;101743.84;5079739;28;20098;-79
2021/05/20 04:09:15;;;;;;;5.63;3.75;;;;;;;9.64;79.05;101742.91;5061209;28;20023;-79
2021/05/20 04:11:40;;;;;;;5.35;4.00;;;;;;;9.68;79.45;101752.13;5064357;28;20028;-79
2021/05/20 04:14:06;;;;;;;5.25;3.40;;;;;;;9.59;80.43;101741.94;5066375;28;20098;-79
2021/05/20 04:16:31;;;;;;;6.65;3.40;;;;;;;9.73;79.49;101746.16;5068479;28;20024;-79
2021/05/20 04:18:57;;;;;;;3.83;3.00;;;;;;;9.88;78.39;101749.31;5063992;28;20021;-79
2021/05/20 04:21:22;;;;;;;4.28;3.03;;;;;;;9.92;78.19;101747.84;5061573;28;20040;-79
2021/05/20 04:23:48;;;;;;;5.10;3.00;;;;;;;9.98;77.88;101744.28;5066427;28;20113;-79
2021/05/20 04:26:19;;;;;;;3.90;3.28;;;;;;;10.03;77.72;101748.13;5061378;28;20047;-79
2021/05/20 04:28:46;;;;;;;3.45;2.50;;;;;;;10.03;77.44;101753.50;5070444;28;20028;-78
2021/05/20 04:31:12;;;;;;;4.28;3.20;;;;;;;10.02;77.58;101750.00;5079642;28;20036;-79
2021/05/20 04:33:37;;;;;;;4.03;3.15;;;;;;;9.94;77.69;101753.78;5081235;28;20016;-79
2021/05/20 04:36:03;;;;;;;4.75;3.47;;;;;;;9.99;77.46;101758.47;5062375;28;20135;-78
2021/05/20 04:38:29;;;;;;;4.55;3.05;;;;;;;9.90;77.87;101752.59;5070029;28;20478;-79
2021/05/20 04:40:54;;;;;;;5.53;3.45;;;;;;;9.98;77.37;101765.69;5066157;28;20101;-79
2021/05/20 04:43:20;;;;;;;3.70;3.08;;;;;;;9.88;77.85;101765.38;5081371;28;20027;-78
2021/05/20 04:45:46;;;;;;;3.65;3.22;;;;;;;9.83;78.14;101770.53;5075983;28;20221;-78
2021/05/20 04:48:12;;;;;;;4.10;3.08;;;;;;;10.07;77.48;101768.94;5061937;28;20478;-78
2021/05/20 04:50:38;;;;;;;3.55;3.10;;;;;;;10.26;76.88;101765.28;5059866;28;20047;-79
2021/05/20 04:53:04;;;;;;;3.63;3.30;;;;;;;10.63;75.01;101773.34;5055045;28;20020;-79
2021/05/20 04:55:30;;;;;;;4.85;3.28;;;;;;;10.69;75.07;101771.63;5076777;28;20417;-79
2021/05/20 04:57:56;;;;;;;4.40;2.90;;;;;;;10.94;73.93;101774.19;5064345;28;20032;-79
2021/05/20 05:00:22;;;;;;;4.32;2.85;;;;;;;10.77;74.51;101777.50;5071375;28;20034;-79
2021/05/20 05:02:47;;;;;;;3.65;2.90;;;;;;;10.89;74.43;101783.75;5067551;28;20330;-79
2021/05/20 05:05:13;;;;;;;4.03;2.90;;;;;;;10.79;74.80;101782.66;5059980;28;20020;-79
2021/05/20 05:07:38;;;;;;;3.67;3.28;;;;;;;11.09;73.99;101777.31;5080579;28;20244;-78
2021/05/20 05:10:05;;;;;;;3.90;3.47;;;;;;;11.30;72.92;101773.31;5067544;28;20076;-79
2021/05/20 05:12:31;;;;;;;4.45;2.97;;;;;;;11.34;71.90;101778.03;5078639;28;20031;-79
2021/05/20 05:14:57;;;;;;;5.55;4.00;;;;;;;11.55;71.54;101778.53;5081613;28;20035;-79
2021/05/20 05:17:24;;;;;;;4.05;3.42;;;;;;;11.47;71.27;101780.50;5064000;28;20020;-79
2021/05/20 05:19:50;;;;;;;6.40;3.83;;;;;;;11.65;70.69;101784.16;5077290;28;20678;-79
2021/05/20 05:22:16;;;;;;;5.10;3.70;;;;;;;11.83;69.85;101780.59;5057671;28;20025;-79
2021/05/20 05:24:41;;;;;;;3.80;3.40;;;;;;;11.93;69.37;101779.00;5058075;28;20034;-79
2021/05/20 05:27:08;;;;;;;5.38;3.35;;;;;;;12.08;69.08;101783.94;5058074;28;20024;-79
2021/05/20 05:29:34;;;;;;;6.25;3.97;;;;;;;11.96;69.50;101785.78;5064155;28;20028;-79
2021/05/20 05:32:01;;;;;;;4.75;3.25;;;;;;;11.80;68.90;101780.03;5078957;28;20055;-79
2021/05/20 05:34:26;;;;;;;5.38;3.58;;;;;;;12.02;68.95;101782.16;5062132;28;20621;-79
2021/05/20 05:36:52;;;;;;;4.55;3.35;;;;;;;12.02;68.91;101779.47;5079798;28;20101;-79
2021/05/20 05:39:18;;;;;;;4.53;3.20;;;;;;;12.29;68.19;101782.53;5079000;28;20059;-79
2021/05/20 05:41:44;;;;;;;7.05;3.90;;;;;;;12.27;67.97;101785.44;5070625;28;20058;-79
2021/05/20 05:44:12;;;;;;;6.32;3.13;;;;;;;12.17;67.64;101792.44;5077719;28;20111;-79
2021/05/20 05:46:38;;;;;;;5.57;3.38;;;;;;;12.45;67.23;101786.38;5071361;28;20027;-79
2021/05/20 05:51:55;;;;;;;4.75;3.55;;;;;;;12.48;67.50;101785.91;5078253;28;20050;-79
2021/05/20 05:54:21;;;;;;;6.20;3.40;;;;;;;12.70;66.93;101792.28;5081065;28;20175;-79
2021/05/20 05:56:46;;;;;;;4.80;3.22;;;;;;;12.66;67.23;101799.19;5076653;28;20531;-79
2021/05/20 05:59:12;;;;;;;5.35;3.65;;;;;;;12.76;66.58;101788.69;5081728;28;20028;-79
2021/05/20 06:01:39;;;;;;;4.25;3.60;;;;;;;12.75;66.17;101796.94;5064273;28;20020;-80
2021/05/20 06:04:06;;;;;;;7.70;3.35;;;;;;;12.90;66.13;101787.34;5077284;28;20055;-79
2021/05/20 06:06:32;;;;;;;4.97;3.50;;;;;;;12.71;66.18;101791.25;5067011;28;20034;-79
2021/05/20 06:08:58;;;;;;;5.00;3.35;;;;;;;12.80;65.22;101789.84;5063186;28;20024;-79
2021/05/20 06:11:23;;;;;;;4.57;3.20;;;;;;;13.05;64.94;101789.53;5061756;28;20035;-79
2021/05/20 06:13:49;;;;;;;3.80;3.40;;;;;;;13.17;64.86;101789.50;5069558;28;20008;-79
2021/05/20 06:16:14;;;;;;;5.90;3.10;;;;;;;13.27;64.12;101795.09;5082614;28;20020;-79
2021/05/20 06:18:40;;;;;;;3.90;2.80;;;;;;;13.46;63.81;101784.94;5068350;28;20024;-79
2021/05/20 06:21:05;;;;;;;4.45;3.60;;;;;;;13.65;63.56;101785.56;5064341;28;20104;-79
2021/05/20 06:23:31;;;;;;;6.80;3.65;;;;;;;13.91;63.19;101791.13;5076699;28;20074;-79
2021/05/20 06:25:56;;;;;;;5.20;3.28;;;;;;;14.04;62.44;101794.56;5063385;28;20063;-79
2021/05/20 06:28:23;;;;;;;4.50;2.55;;;;;;;13.93;60.43;101798.94;5070455;28;20031;-79
2021/05/20 06:30:48;;;;;;;5.88;3.13;;;;;;;14.10;61.05;101794.38;5080854;28;20051;-79
2021/05/20 06:33:15;;;;;;;3.75;3.00;;;;;;;14.00;60.79;101806.84;5066136;28;20613;-79
2021/05/20 06:35:41;;;;;;;4.40;2.88;;;;;;;14.33;60.89;101806.84;5078889;28;20394;-79
2021/05/20 06:38:07;;;;;;;3.95;2.75;;;;;;;14.54;60.10;101805.28;5067808;28;20028;-79
2021/05/20 06:40:32;;;;;;;4.82;2.58;;;;;;;14.51;59.89;101806.59;5079196;28;20020;-79
2021/05/20 06:42:57;;;;;;;4.57;2.72;;;;;;;14.65;59.43;101809.75;5059597;28;20039;-79
2021/05/20 06:45:23;;;;;;;4.93;2.67;;;;;;;14.93;58.91;101810.69;5082745;28;20382;-79
2021/05/20 06:47:53;;;;;;;4.38;2.60;;;;;;;15.06;59.07;101810.28;5082001;28;20051;-80
2021/05/20 06:50:19;;;;;;;4.07;2.55;;;;;;;15.31;58.23;101810.56;5062205;28;20028;-79
2021/05/20 06:52:45;;;;;;;4.93;2.97;;;;;;;15.18;56.83;101815.53;5063274;28;20034;-79
2021/05/20 06:55:10;;;;;;;3.47;2.67;;;;;;;15.32;56.39;101809.50;5065472;28;20471;-79
2021/05/20 07:00:20;;;;;;;4.88;2.58;;;;;;;15.11;58.12;101821.16;5077393;28;20089;-79
2021/05/20 07:02:47;;;;;;;5.22;2.55;;;;;;;15.14;57.90;101815.25;5061646;28;20636;-79
2021/05/20 07:05:14;;;;;;;4.78;2.83;;;;;;;15.15;57.29;101816.88;5067096;28;20036;-79
2021/05/20 07:07:40;;;;;;;3.38;2.80;;;;;;;15.24;56.40;101820.75;5066535;28;20066;-79
2021/05/20 07:10:07;;;;;;;3.83;2.33;;;;;;;14.93;56.74;101824.16;5066081;28;20063;-79
2021/05/20 07:12:33;;;;;;;2.58;2.35;;;;;;;14.86;56.99;101827.03;5070803;28;20011;-79
2021/05/20 07:15:01;;;;;;;3.58;2.03;;;;;;;15.13;55.12;101824.41;5078476;28;20024;-79
2021/05/20 07:17:26;;;;;;;3.58;2.10;;;;;;;15.54;54.66;101824.84;5074284;28;20691;-79
2021/05/20 07:19:52;;;;;;;3.70;1.70;;;;;;;15.80;53.50;101823.22;5065893;28;20028;-79
2021/05/20 07:22:17;;;;;;;2.17;1.98;;;;;;;16.09;52.92;101816.44;5070929;28;20115;-79
2021/05/20 07:24:44;;;;;;;2.55;2.15;;;;;;;16.44;52.61;101818.59;5083145;28;20055;-79
2021/05/20 07:27:10;;;;;;;2.35;2.10;;;;;;;16.58;51.15;101821.66;5081547;28;20398;-79
2021/05/20 07:29:35;;;;;;;2.90;2.05;;;;;;;16.85;51.16;101816.94;5073104;28;20028;-79
2021/05/20 07:32:01;;;;;;;2.92;2.00;;;;;;;17.32;51.05;101817.94;5082948;28;20016;-78
2021/05/20 07:34:26;;;;;;;3.95;2.60;;;;;;;17.60;50.37;101814.75;5061988;28;20035;-79
2021/05/20 07:36:52;;;;;;;2.78;2.17;;;;;;;17.53;48.59;101814.16;5085019;28;20020;-79
2021/05/20 07:39:18;;;;;;;2.92;2.00;;;;;;;16.53;49.44;101822.44;5084629;28;20142;-78
2021/05/20 07:41:45;;;;;;;2.90;2.17;;;;;;;16.04;49.65;101818.31;5084219;28;20466;-79
2021/05/20 07:44:10;;;;;;;3.58;2.10;;;;;;;16.27;50.35;101818.75;5062933;28;20024;-79
2021/05/20 07:46:36;;;;;;;3.42;2.00;;;;;;;16.90;49.47;101821.59;5084189;28;20035;-79
2021/05/20 07:49:01;;;;;;;2.17;1.92;;;;;;;16.41;47.51;101821.81;5065382;28;20500;-79
2021/05/20 07:51:27;;;;;;;6.30;2.45;;;;;;;16.59;48.33;101826.81;5070509;28;20089;-79
2021/05/20 07:53:52;;;;;;;3.25;1.88;;;;;;;16.97;48.19;101824.03;5074019;28;20016;-79
2021/05/20 07:56:18;;;;;;;4.10;1.88;;;;;;;17.12;47.62;101813.28;5062367;28;20054;-79
2021/05/20 07:58:44;;;;;;;2.55;1.50;;;;;;;17.43;45.95;101825.00;5068969;28;20023;-79
2021/05/20 08:01:12;;;;;;;2.58;1.50;;;;;;;17.60;45.67;101813.94;5065736;28;20023;-78
2021/05/20 08:04:06;;;;;;;1.98;1.65;;;;;;;17.89;45.45;101816.94;5082244;28;20037;-79
2021/05/20 08:06:39;;;;;;;3.20;1.33;;;;;;;17.56;43.97;101823.66;5079934;28;20127;-79
2021/05/20 08:11:48;;;;;;;4.22;1.63;;;;;;;16.75;47.07;101819.63;5082172;28;20106;-79
2021/05/20 08:14:14;;;;;;;2.15;1.30;;;;;;;16.57;45.78;101820.03;5082802;28;20150;-78
2021/05/20 08:16:39;;;;;;;2.30;1.42;;;;;;;16.86;45.84;101823.16;5075274;28;20024;-79
2021/05/20 08:19:05;;;;;;;2.83;1.40;;;;;;;17.33;45.76;101820.38;5061255;28;20036;-78
2021/05/20 08:21:30;;;;;;;2.55;1.27;;;;;;;17.66;44.58;101813.66;5071732;28;20063;-78
2021/05/20 08:23:56;;;;;;;2.53;1.40;;;;;;;18.25;44.32;101815.03;5084400;28;21898;-79
2021/05/20 08:26:25;;;;;;;4.35;1.50;;;;;;;18.50;43.63;101814.19;5079927;28;20406;-79
2021/05/20 08:28:52;;;;;;;4.63;2.08;;;;;;;18.71;43.33;101819.31;5076623;28;20376;-79
2021/05/20 08:31:18;;;;;;;2.72;1.63;;;;;;;17.57;44.36;101815.25;5067628;28;20081;-79
2021/05/20 08:33:43;;;;;;;9.68;8.45;;;;;;;17.87;42.64;101819.13;5067821;28;20039;-79
2021/05/20 08:36:09;;;;;;;3.28;2.25;;;;;;;17.80;44.86;101814.78;5064592;28;20138;-79
2021/05/20 08:38:34;;;;;;;1.23;1.13;;;;;;;17.44;45.31;101822.03;5088935;28;20436;-79
2021/05/20 08:41:00;;;;;;;2.10;1.30;;;;;;;17.39;44.38;101826.59;5085153;28;20024;-78
2021/05/20 08:43:26;;;;;;;1.85;1.50;;;;;;;17.58;43.30;101829.63;5082822;28;20583;-78
2021/05/20 08:45:52;;;;;;;2.88;1.60;;;;;;;16.83;43.22;101829.09;5082016;28;20495;-78
2021/05/20 08:48:17;;;;;;;1.38;1.20;;;;;;;17.47;43.54;101820.69;5085735;28;20028;-79
2021/05/20 08:50:43;;;;;;;2.15;1.00;;;;;;;17.94;43.72;101825.88;5079970;28;20028;-79
2021/05/20 08:53:08;;;;;;;1.73;1.30;;;;;;;18.23;44.04;101825.34;5082326;28;20054;-79
2021/05/20 08:55:36;;;;;;;1.73;1.10;;;;;;;18.31;44.38;101830.22;5068808;28;20030;-78
2021/05/20 08:58:05;;;;;;;1.20;1.10;;;;;;;17.95;42.70;101830.22;5063910;28;20081;-78
2021/05/20 09:00:31;;;;;;;2.38;1.40;;;;;;;17.92;44.02;101835.38;5083127;28;20059;-79
2021/05/20 09:03:14;;;;;;;4.60;2.75;;;;;;;18.48;42.74;101829.91;5070390;28;20039;-79
2021/05/20 09:05:41;;;;;;;2.70;1.30;;;;;;;17.88;43.30;101826.16;5080845;28;20020;-79
2021/05/20 09:08:12;;;;;;;2.53;1.30;;;;;;;18.57;43.42;101826.38;5080269;28;20913;-79
2021/05/20 09:10:40;;;;;;;3.95;1.20;;;;;;;18.91;41.97;101826.56;5081799;28;20186;-79
2021/05/20 09:13:15;;;;;;;1.58;1.30;;;;;;;18.75;41.50;101826.91;5067843;28;20017;-79
2021/05/20 09:15:47;;;;;;;3.28;1.50;;;;;;;17.86;42.53;101829.16;5074371;28;20024;-79
2021/05/20 09:18:21;;;;;;;2.33;1.42;;;;;;;17.65;43.50;101828.28;5066664;28;20028;-79
2021/05/20 09:20:49;;;;;;;2.67;1.77;;;;;;;17.64;44.46;101829.38;5061903;28;20505;-79
2021/05/20 09:23:18;;;;;;;4.40;3.08;;;;;;;17.57;44.69;101830.69;5080568;28;20029;-79
2021/05/20 09:25:45;;;;;;;1.40;1.30;;;;;;;17.70;45.03;101822.91;5070568;28;20024;-79
2021/05/20 09:28:12;;;;;;;3.08;1.90;;;;;;;17.16;45.10;101833.31;5066570;28;20028;-79
2021/05/20 09:30:42;;;;;;;2.75;2.00;;;;;;;16.92;45.41;101828.34;5083141;28;20031;-79
2021/05/20 09:33:11;;;;;;;3.03;1.50;;;;;;;17.14;44.20;101822.75;5065917;28;20627;-79
2021/05/20 09:35:48;;;;;;;1.63;1.10;;;;;;;17.50;41.12;101820.13;5081975;28;20036;-79
2021/05/20 09:38:17;;;;;;;1.27;1.20;;;;;;;17.43;41.21;101830.44;5063979;28;20960;-78
2021/05/20 09:40:56;;;;;;;2.35;1.02;;;;;;;18.13;41.97;101815.31;5077682;28;20456;-79
2021/05/20 09:43:24;;;;;;;1.70;1.27;;;;;;;18.30;42.83;101823.97;5062626;28;20025;-79
2021/05/20 09:45:54;;;;;;;1.13;0.98;;;;;;;17.71;42.79;101834.56;5064364;28;20020;-79
2021/05/20 09:48:22;;;;;;;2.75;1.10;;;;;;;17.32;44.16;101835.00;5060703;28;20035;-79
2021/05/20 09:50:50;;;;;;;1.85;1.15;;;;;;;17.48;43.13;101833.13;5062887;28;20016;-79
2021/05/20 09:53:20;;;;;;;1.67;1.48;;;;;;;17.68;41.68;101827.78;5062506;28;20493;-78
2021/05/20 09:55:55;;;;;;;3.70;1.00;;;;;;;18.34;40.82;101825.06;5063825;28;20401;-79
2021/05/20 09:58:32;;;;;;;1.77;1.10;;;;;;;18.23;39.17;101823.44;5065095;28;20024;-79
2021/05/20 10:01:00;;;;;;;3.08;1.05;;;;;;;18.13;41.50;101828.88;5060413;28;20115;-79
2021/05/20 10:03:27;;;;;;;0.95;0.82;;;;;;;18.12;41.67;101819.09;5071406;28;20516;-79
2021/05/20 10:05:59;;;;;;;3.08;1.05;;;;;;;17.97;41.37;101816.44;5077688;28;20051;-79
2021/05/20 10:08:26;;;;;;;1.27;1.17;;;;;;;17.59;40.79;101820.41;5082730;28;20028;-79
2021/05/20 10:10:56;;;;;;;2.92;2.60;;;;;;;17.84;40.00;101811.53;5081677;28;20031;-79
2021/05/20 10:13:27;;;;;;;1.63;1.10;;;;;;;17.68;39.38;101811.53;5078221;28;20012;-79
2021/05/20 10:15:54;;;;;;;2.35;1.42;;;;;;;18.06;40.77;101806.66;5061296;28;20052;-78
2021/05/20 10:18:21;;;;;;;1.00;1.00;;;;;;;18.19;42.03;101805.28;5060290;28;20923;-79
2021/05/20 10:20:49;;;;;;;1.35;1.25;;;;;;;17.90;40.78;101813.97;5077812;28;20421;-79
2021/05/20 10:23:17;;;;;;;0.90;0.80;;;;;;;18.57;39.73;101801.13;5062601;28;20033;-79
2021/05/20 10:25:43;;;;;;;1.05;0.68;;;;;;;18.89;39.08;101801.59;5064051;28;20057;-79
2021/05/20 10:28:11;;;;;;;0.50;0.50;;;;;;;19.10;36.79;101804.22;5063210;28;20112;-79
2021/05/20 10:30:40;;;;;;;2.08;1.00;;;;;;;18.26;39.16;101803.09;5065147;28;20021;-79
2021/05/20 10:33:06;;;;;;;1.55;1.20;;;;;;;18.26;40.17;101801.19;5064398;28;20017;-79
2021/05/20 10:35:41;;;;;;;1.40;0.77;;;;;;;19.05;39.00;101806.97;5064751;28;20032;-79
2021/05/20 10:38:07;;;;;;;1.23;0.90;;;;;;;19.22;39.04;101802.81;5055521;28;20073;-79
2021/05/20 10:40:34;;;;;;;1.92;1.00;;;;;;;18.26;38.16;101798.47;5077023;28;20043;-78
2021/05/20 10:43:13;;;;;;;1.58;0.70;;;;;;;18.41;38.57;101795.75;5081621;28;20038;-78
2021/05/20 10:46:06;;;;;;;0.60;0.60;;;;;;;18.35;35.03;101783.28;5070289;28;20055;-78
2021/05/20 10:48:33;;;;;;;1.70;0.93;;;;;;;18.52;38.06;101782.16;5060799;28;20597;-80
2021/05/20 10:51:00;;;;;;;1.20;1.08;;;;;;;18.96;38.67;101785.81;5075647;28;20055;-78
2021/05/20 10:53:47;;;;;;;0.88;0.70;;;;;;;19.10;39.17;101787.91;5069801;28;20029;-79
2021/05/20 10:56:15;;;;;;;1.48;0.70;;;;;;;19.72;37.93;101770.13;5064500;28;20031;-82
2021/05/20 10:58:47;;;;;;;1.95;0.88;;;;;;;19.49;34.68;101777.88;5071599;28;20024;-82
2021/05/20 11:01:24;;;;;;;1.73;1.48;;;;;;;19.62;35.82;101779.19;5077950;28;20532;-82
2021/05/20 11:03:54;;;;;;;2.40;0.80;;;;;;;20.06;37.63;101770.09;5083361;28;20554;-82
2021/05/20 11:06:22;;;;;;;0.50;0.50;;;;;;;20.34;36.65;101765.75;5068139;28;20020;-78
2021/05/20 11:08:48;;;;;;;2.42;0.60;;;;;;;20.26;34.36;101763.63;5078776;28;20610;-84
2021/05/20 11:11:43;;;;;;;0.63;0.63;;;;;;;20.47;33.30;101760.47;5063884;28;20052;-80
2021/05/20 11:14:12;;;;;;;;;;;;;;;20.42;33.47;101762.41;5070543;28;20024;-78
2021/05/20 11:16:38;;;;;;;0.75;0.70;;;;;;;19.85;33.09;101766.75;5065566;28;19920;-83
2021/05/20 11:19:25;;;;;;;1.58;0.60;;;;;;;19.19;32.34;101775.34;5080092;28;20148;-78
2021/05/20 11:22:01;;;;;;;0.85;0.40;;;;;;;18.48;33.44;101756.63;5078688;28;20088;-77
2021/05/20 11:24:41;;;;;;;0.50;0.50;;;;;;;18.85;34.03;101764.41;5063124;28;20039;-78
2021/05/20 11:27:16;;;;;;;0.50;0.50;;;;;;;19.19;32.58;101759.06;5063606;28;20039;-78
2021/05/20 11:29:44;;;;;;;1.67;0.60;;;;;;;18.30;34.22;101756.16;5074113;28;20028;-77
2021/05/20 11:32:25;;;;;;;0.52;0.52;;;;;;;19.07;33.53;101758.59;5077121;28;20023;-78
2021/05/20 11:37:33;;;;;;;4.30;0.63;;;;;;;20.14;31.59;101739.56;5078623;28;20200;-77
2021/05/20 11:39:59;;;;;;;2.42;0.63;;;;;;;19.01;31.86;101758.59;5076467;28;20035;-77
2021/05/20 11:42:32;;;;;;;0.55;0.40;;;;;;;19.22;31.92;101761.22;5076539;28;20032;-78